Time;durP1;ratioP1;P1;durP2;ratioP2;P2;SDS_P1;SDS_P2;PMS_P1;PMS_P2;Temp;Humidity;BMP_temperature;BMP_pressure;BME280_temperature;BME280_humidity;BME280_pressure;Samples;Min_cycle;Max_cycle;Signal;HPM_P1;HPM_P2
2021/03/28 00:00:52;;;;;;;4.70;1.87;;;7.50;99.90;;;;;;5006872;28;20467;-70
2021/03/28 00:03:23;;;;;;;1.97;1.80;;;7.60;99.90;;;;;;5011141;28;20548;-70
2021/03/28 00:05:50;;;;;;;2.10;1.90;;;7.60;99.90;;;;;;4987459;28;20987;-69
2021/03/28 00:08:24;;;;;;;4.13;2.03;;;7.60;99.90;;;;;;4999321;28;21003;-70
2021/03/28 00:10:54;;;;;;;2.33;2.13;;;7.70;99.90;;;;;;5014996;28;20474;-69
2021/03/28 00:13:28;;;;;;;2.80;1.73;;;7.70;99.90;;;;;;5025221;28;20455;-70
2021/03/28 00:15:56;;;;;;;1.90;1.67;;;7.60;99.90;;;;;;4980383;28;20487;-69
2021/03/28 00:18:48;;;;;;;1.87;1.30;;;7.60;99.90;;;;;;5014647;28;20531;-70
2021/03/28 00:21:32;;;;;;;3.00;1.97;;;7.60;99.90;;;;;;5008352;28;20476;-70
2021/03/28 00:24:17;;;;;;;2.80;2.20;;;7.60;99.90;;;;;;5003148;28;20451;-70
2021/03/28 00:27:02;;;;;;;2.87;1.90;;;7.60;99.90;;;;;;5019696;28;20826;-70
2021/03/28 00:29:28;;;;;;;3.70;1.80;;;7.60;99.90;;;;;;5008240;28;20526;-70
2021/03/28 00:32:06;;;;;;;9.07;2.57;;;7.60;99.90;;;;;;5008869;28;20456;-69
2021/03/28 00:34:33;;;;;;;3.77;2.30;;;7.60;99.90;;;;;;4996171;28;20225;-71
2021/03/28 00:37:07;;;;;;;5.60;2.20;;;7.70;99.90;;;;;;5010174;28;20517;-71
2021/03/28 00:39:55;;;;;;;3.60;2.00;;;7.60;99.90;;;;;;5004318;28;20455;-70
2021/03/28 00:42:43;;;;;;;2.27;1.87;;;7.60;99.90;;;;;;5021521;28;20455;-71
2021/03/28 00:45:09;;;;;;;4.13;1.90;;;7.60;99.90;;;;;;5025247;28;20477;-71
2021/03/28 00:47:37;;;;;;;1.87;1.77;;;7.60;99.90;;;;;;5011920;28;20448;-70
2021/03/28 00:50:22;;;;;;;3.87;1.73;;;7.50;99.90;;;;;;5025818;28;20208;-69
2021/03/28 00:52:58;;;;;;;4.00;2.27;;;7.50;99.90;;;;;;5017464;28;20968;-70
2021/03/28 00:55:29;;;;;;;6.03;2.93;;;7.50;99.90;;;;;;5005907;28;20484;-70
2021/03/28 00:58:18;;;;;;;4.73;1.93;;;7.40;99.90;;;;;;5020248;28;20451;-70
2021/03/28 01:01:28;;;;;;;3.10;2.13;;;7.40;99.90;;;;;;5000203;28;20469;-70
2021/03/28 01:04:24;;;;;;;2.43;1.67;;;7.40;99.90;;;;;;5014155;28;20585;-70
2021/03/28 01:07:13;;;;;;;6.00;2.00;;;7.40;99.90;;;;;;5027564;28;20447;-69
2021/03/28 01:10:04;;;;;;;4.93;1.53;;;7.50;99.90;;;;;;5009922;28;20985;-71
2021/03/28 01:12:49;;;;;;;1.53;1.43;;;7.50;99.90;;;;;;5036453;28;20451;-70
2021/03/28 01:15:37;;;;;;;2.37;2.13;;;7.50;99.90;;;;;;5006694;28;20505;-70
2021/03/28 01:18:26;;;;;;;6.40;1.90;;;7.50;99.90;;;;;;5032802;28;20462;-71
2021/03/28 01:20:57;;;;;;;1.83;1.73;;;7.50;99.90;;;;;;5031013;28;20460;-70
2021/03/28 01:23:41;;;;;;;3.77;1.73;;;7.50;99.90;;;;;;5017681;28;20988;-70
2021/03/28 01:26:21;;;;;;;4.57;1.87;;;7.50;99.90;;;;;;5017903;28;20449;-70
2021/03/28 01:29:28;;;;;;;6.07;2.07;;;7.60;99.90;;;;;;4998907;28;20446;-70
2021/03/28 01:32:00;;;;;;;2.47;1.90;;;7.60;99.90;;;;;;5015979;28;20455;-70
2021/03/28 01:34:33;;;;;;;2.17;1.50;;;7.50;99.90;;;;;;5025160;28;20473;-70
2021/03/28 01:37:11;;;;;;;2.27;1.93;;;7.50;99.90;;;;;;5007510;28;21125;-72
2021/03/28 01:39:46;;;;;;;2.97;1.70;;;7.40;99.90;;;;;;5011906;28;20455;-70
2021/03/28 01:42:34;;;;;;;6.63;2.97;;;7.40;99.90;;;;;;5005304;28;20457;-70
2021/03/28 01:45:22;;;;;;;3.47;2.10;;;7.40;99.90;;;;;;5020136;28;20452;-69
2021/03/28 01:48:09;;;;;;;3.50;2.20;;;7.40;99.90;;;;;;5028397;28;20450;-70
2021/03/28 01:51:13;;;;;;;4.53;2.00;;;7.40;99.90;;;;;;5026607;28;20451;-70
2021/03/28 01:53:57;;;;;;;6.50;2.30;;;7.40;99.90;;;;;;5022028;28;20521;-69
2021/03/28 01:56:42;;;;;;;2.47;1.80;;;7.40;99.90;;;;;;5010114;28;20450;-70
2021/03/28 01:59:35;;;;;;;2.47;2.27;;;7.50;99.90;;;;;;5027487;28;20468;-70
2021/03/28 02:02:30;;;;;;;2.33;1.93;;;7.40;99.90;;;;;;5016386;28;20468;-70
2021/03/28 02:05:11;;;;;;;6.53;2.37;;;7.50;99.90;;;;;;5015490;28;20466;-71
2021/03/28 02:07:55;;;;;;;2.17;1.97;;;7.50;99.90;;;;;;5029869;28;21071;-70
2021/03/28 02:10:40;;;;;;;2.57;2.23;;;7.50;99.90;;;;;;5011633;28;20456;-71
2021/03/28 02:13:17;;;;;;;2.03;1.83;;;7.50;99.90;;;;;;5004014;28;20444;-71
2021/03/28 02:16:22;;;;;;;1.80;1.70;;;7.60;99.90;;;;;;5007791;28;20443;-70
2021/03/28 02:19:20;;;;;;;2.47;2.27;;;7.60;99.90;;;;;;5007656;28;20492;-70
2021/03/28 02:21:55;;;;;;;4.33;1.90;;;7.60;99.90;;;;;;4999045;28;20539;-70
2021/03/28 02:24:30;;;;;;;2.23;2.03;;;7.60;99.90;;;;;;5024993;28;21014;-70
2021/03/28 02:27:14;;;;;;;5.60;2.20;;;7.60;99.90;;;;;;5010681;28;20464;-70
2021/03/28 02:30:05;;;;;;;5.93;2.00;;;7.60;99.90;;;;;;5019106;28;20455;-69
2021/03/28 02:32:51;;;;;;;1.90;1.67;;;7.60;99.90;;;;;;5002483;28;20485;-71
2021/03/28 02:35:35;;;;;;;2.63;1.97;;;7.60;99.90;;;;;;5018478;28;20453;-70
2021/03/28 02:38:25;;;;;;;5.37;2.00;;;7.60;99.90;;;;;;5020377;28;20451;-70
2021/03/28 02:41:11;;;;;;;2.37;1.90;;;7.60;99.90;;;;;;5017434;28;20451;-70
2021/03/28 02:44:12;;;;;;;4.97;2.00;;;7.60;99.90;;;;;;5021280;28;20435;-71
2021/03/28 02:46:48;;;;;;;3.10;2.80;;;7.60;99.90;;;;;;5006215;28;20442;-70
2021/03/28 02:49:40;;;;;;;2.73;2.10;;;7.60;99.90;;;;;;5003885;28;20454;-70
2021/03/28 02:52:05;;;;;;;2.03;1.70;;;7.60;99.90;;;;;;5002839;28;20529;-71
2021/03/28 02:54:48;;;;;;;2.83;1.87;;;7.70;99.90;;;;;;5001492;28;21071;-69
2021/03/28 02:57:51;;;;;;;4.77;1.80;;;7.70;99.90;;;;;;5013127;28;20275;-70
2021/03/28 03:00:35;;;;;;;5.30;1.80;;;7.70;99.90;;;;;;5021240;28;20540;-70
2021/03/28 03:03:17;;;;;;;3.20;1.80;;;7.70;99.90;;;;;;5012763;28;20971;-71
2021/03/28 03:05:53;;;;;;;3.63;1.70;;;7.70;99.90;;;;;;5036434;28;20998;-71
2021/03/28 03:08:27;;;;;;;2.17;2.03;;;7.70;99.90;;;;;;5045897;28;21069;-71
2021/03/28 03:11:34;;;;;;;1.83;1.57;;;7.70;99.90;;;;;;5049051;28;20454;-70
2021/03/28 03:14:30;;;;;;;2.63;1.77;;;7.70;99.90;;;;;;5047233;28;20986;-71
2021/03/28 03:17:08;;;;;;;1.57;1.40;;;7.70;99.90;;;;;;5037541;28;20450;-71
2021/03/28 03:19:52;;;;;;;1.67;1.57;;;7.80;99.90;;;;;;5048606;28;20542;-70
2021/03/28 03:22:55;;;;;;;3.13;1.60;;;7.70;99.90;;;;;;5028416;28;20482;-70
2021/03/28 03:25:43;;;;;;;2.10;1.90;;;7.70;99.90;;;;;;5034054;28;20461;-71
2021/03/28 03:28:24;;;;;;;2.67;2.20;;;7.70;99.90;;;;;;5016360;28;20440;-70
2021/03/28 03:31:34;;;;;;;3.53;1.80;;;7.80;99.90;;;;;;5024940;28;20450;-70
2021/03/28 03:34:29;;;;;;;2.27;1.50;;;7.70;99.90;;;;;;5022709;28;20470;-70
2021/03/28 03:37:12;;;;;;;5.13;2.20;;;7.70;99.90;;;;;;5006412;28;20520;-70
2021/03/28 03:39:44;;;;;;;2.43;2.07;;;7.70;99.90;;;;;;5019108;28;20454;-70
2021/03/28 03:42:46;;;;;;;5.03;2.20;;;7.70;99.90;;;;;;5010986;28;21012;-70
2021/03/28 03:45:44;;;;;;;1.83;1.70;;;7.70;99.90;;;;;;5037256;28;20466;-70
2021/03/28 03:48:09;;;;;;;1.97;1.77;;;7.70;99.90;;;;;;5044688;28;20481;-70
2021/03/28 03:50:50;;;;;;;4.13;2.10;;;7.70;99.90;;;;;;5027455;28;20474;-71
2021/03/28 03:53:46;;;;;;;3.47;2.20;;;7.70;99.90;;;;;;5009532;28;20268;-70
2021/03/28 03:56:33;;;;;;;1.93;1.83;;;7.70;99.90;;;;;;5011967;28;20459;-70
2021/03/28 03:58:59;;;;;;;2.57;1.97;;;7.70;99.90;;;;;;5036402;28;20453;-70
2021/03/28 04:01:34;;;;;;;2.53;2.03;;;7.70;99.90;;;;;;5009923;28;20459;-70
2021/03/28 04:04:12;;;;;;;3.03;2.10;;;7.70;99.90;;;;;;5003717;28;20224;-71
2021/03/28 04:07:01;;;;;;;7.97;2.90;;;7.70;99.90;;;;;;5031517;28;20449;-71
2021/03/28 04:10:19;;;;;;;1.90;1.80;;;7.70;99.90;;;;;;5030550;28;20471;-70
2021/03/28 04:12:56;;;;;;;3.70;2.13;;;7.70;99.90;;;;;;4998912;28;20454;-70
2021/03/28 04:15:52;;;;;;;2.93;2.13;;;7.70;99.90;;;;;;5048580;28;20474;-71
2021/03/28 04:18:31;;;;;;;2.23;1.90;;;7.70;99.90;;;;;;5013331;28;20482;-70
2021/03/28 04:21:10;;;;;;;2.83;2.37;;;7.70;99.90;;;;;;5009898;28;20471;-70
2021/03/28 04:23:54;;;;;;;2.80;2.30;;;7.60;99.90;;;;;;5041109;28;20434;-70
2021/03/28 04:26:43;;;;;;;3.40;2.87;;;7.60;99.90;;;;;;5024442;28;20461;-71
2021/03/28 04:29:12;;;;;;;2.90;2.27;;;7.60;99.90;;;;;;5028957;28;20448;-70
2021/03/28 04:31:40;;;;;;;3.00;2.20;;;7.60;99.90;;;;;;5012261;28;20441;-70
2021/03/28 04:34:24;;;;;;;4.23;2.33;;;7.60;99.90;;;;;;5040140;28;20493;-70
2021/03/28 04:37:27;;;;;;;3.87;2.00;;;7.60;99.90;;;;;;4979654;28;20502;-69
2021/03/28 04:40:21;;;;;;;2.83;2.07;;;7.60;99.90;;;;;;5016746;28;20544;-70
2021/03/28 04:43:32;;;;;;;4.77;2.53;;;7.60;99.90;;;;;;5030819;28;20504;-70
2021/03/28 04:46:19;;;;;;;2.73;2.23;;;7.60;99.90;;;;;;5012554;28;20522;-70
2021/03/28 04:49:02;;;;;;;5.90;2.17;;;7.60;99.90;;;;;;5007000;28;20463;-70
2021/03/28 04:51:49;;;;;;;6.60;2.37;;;7.60;99.90;;;;;;5017269;28;20440;-69
2021/03/28 04:54:52;;;;;;;2.27;2.07;;;7.60;99.90;;;;;;5034903;28;20526;-71
2021/03/28 04:57:24;;;;;;;4.93;2.80;;;7.60;99.90;;;;;;5031479;28;20447;-70
2021/03/28 04:59:55;;;;;;;4.57;2.37;;;7.60;99.90;;;;;;5024824;28;20449;-70
2021/03/28 05:02:27;;;;;;;3.77;2.70;;;7.60;99.90;;;;;;5016519;28;20506;-70
2021/03/28 05:05:14;;;;;;;8.30;2.97;;;7.50;99.90;;;;;;5040107;28;20492;-70
2021/03/28 05:07:53;;;;;;;3.80;2.47;;;7.50;99.90;;;;;;5024677;28;20955;-70
2021/03/28 05:10:45;;;;;;;2.67;2.43;;;7.50;99.90;;;;;;5012193;28;20460;-70
2021/03/28 05:13:48;;;;;;;6.77;3.10;;;7.40;99.90;;;;;;5026490;28;20463;-70
2021/03/28 05:16:29;;;;;;;3.47;2.80;;;7.40;99.90;;;;;;5023133;28;20442;-70
2021/03/28 05:19:25;;;;;;;2.57;2.00;;;7.40;99.90;;;;;;5034889;28;20500;-70
2021/03/28 05:22:15;;;;;;;3.10;2.77;;;7.40;99.90;;;;;;5034590;28;20538;-70
2021/03/28 05:25:02;;;;;;;2.20;2.00;;;7.40;99.90;;;;;;5039920;28;20456;-70
2021/03/28 05:27:46;;;;;;;3.40;2.53;;;7.40;99.90;;;;;;5019863;28;20464;-71
2021/03/28 05:31:01;;;;;;;2.93;2.03;;;7.40;99.90;;;;;;5014934;28;20451;-70
2021/03/28 05:33:47;;;;;;;6.43;2.40;;;7.40;99.90;;;;;;5038692;28;20497;-69
2021/03/28 05:36:53;;;;;;;3.90;2.67;;;7.40;99.90;;;;;;5010802;28;20456;-71
2021/03/28 05:39:39;;;;;;;4.60;2.37;;;7.40;99.90;;;;;;5032193;28;20444;-71
2021/03/28 05:42:31;;;;;;;5.70;3.00;;;7.40;99.90;;;;;;5011969;28;20472;-71
2021/03/28 05:45:12;;;;;;;3.80;2.77;;;7.40;99.90;;;;;;5011478;28;20471;-70
2021/03/28 05:48:04;;;;;;;6.23;3.67;;;7.40;99.90;;;;;;5037184;28;20494;-70
2021/03/28 05:50:54;;;;;;;6.93;4.20;;;7.30;99.90;;;;;;5037972;28;20980;-70
2021/03/28 05:53:44;;;;;;;7.50;4.30;;;7.30;99.90;;;;;;4995131;28;20472;-71
2021/03/28 05:56:40;;;;;;;7.50;4.83;;;7.30;99.90;;;;;;5038839;28;20472;-71
2021/03/28 05:59:33;;;;;;;10.97;5.80;;;7.40;99.90;;;;;;5016817;28;20928;-70
2021/03/28 06:02:23;;;;;;;7.47;4.93;;;7.30;99.90;;;;;;5033254;28;20472;-71
2021/03/28 06:05:19;;;;;;;5.97;3.80;;;7.30;99.90;;;;;;5023675;28;20463;-69
2021/03/28 06:08:09;;;;;;;4.93;2.70;;;7.30;99.90;;;;;;5030090;28;20911;-69
2021/03/28 06:10:56;;;;;;;3.77;3.40;;;7.30;99.90;;;;;;5015071;28;21493;-69
2021/03/28 06:13:40;;;;;;;7.83;6.17;;;7.30;99.90;;;;;;5005708;28;20488;-70
2021/03/28 06:16:24;;;;;;;8.33;4.63;;;7.20;99.90;;;;;;5010150;28;20452;-70
2021/03/28 06:19:19;;;;;;;7.57;5.23;;;7.20;99.90;;;;;;5022092;28;20447;-70
2021/03/28 06:22:03;;;;;;;9.00;4.97;;;7.10;99.90;;;;;;5010360;28;20876;-70
2021/03/28 06:25:02;;;;;;;7.43;4.63;;;7.10;99.90;;;;;;5034386;28;20451;-70
2021/03/28 06:28:03;;;;;;;7.10;4.27;;;7.10;99.90;;;;;;5011460;28;20507;-69
2021/03/28 06:30:52;;;;;;;5.13;3.57;;;7.10;99.90;;;;;;5013431;28;20455;-70
2021/03/28 06:34:06;;;;;;;3.80;3.40;;;7.00;99.90;;;;;;5006339;28;20451;-71
2021/03/28 06:36:40;;;;;;;8.33;3.53;;;7.00;99.90;;;;;;5013606;28;20980;-70
2021/03/28 06:39:46;;;;;;;3.10;2.80;;;7.00;99.90;;;;;;5010404;28;20514;-70
2021/03/28 06:42:43;;;;;;;4.93;3.20;;;7.00;99.90;;;;;;5004430;28;20465;-70
2021/03/28 06:45:39;;;;;;;4.03;2.97;;;7.00;99.90;;;;;;5029233;28;20491;-70
2021/03/28 06:48:15;;;;;;;5.27;2.90;;;7.00;99.90;;;;;;5008446;28;20456;-70
2021/03/28 06:51:19;;;;;;;3.47;3.17;;;7.00;99.90;;;;;;5010973;28;20504;-70
2021/03/28 06:53:55;;;;;;;5.03;2.80;;;7.00;99.90;;;;;;5021331;28;20451;-70
2021/03/28 06:56:48;;;;;;;5.40;3.43;;;7.00;99.90;;;;;;5034430;28;20523;-69
2021/03/28 06:59:47;;;;;;;3.27;2.80;;;7.00;99.90;;;;;;5045176;28;20454;-70
2021/03/28 07:02:16;;;;;;;3.40;2.90;;;7.00;99.90;;;;;;5017709;28;20483;-70
2021/03/28 07:05:08;;;;;;;2.90;2.53;;;7.00;99.90;;;;;;5016923;28;20466;-70
2021/03/28 07:07:45;;;;;;;7.27;3.07;;;7.00;99.90;;;;;;5020513;28;20451;-70
2021/03/28 07:10:56;;;;;;;3.17;2.17;;;7.00;99.90;;;;;;5021256;28;20453;-70
2021/03/28 07:13:31;;;;;;;5.53;2.73;;;7.10;99.90;;;;;;5027519;28;20447;-71
2021/03/28 07:16:24;;;;;;;4.30;2.77;;;7.10;99.90;;;;;;5031959;28;20933;-71
2021/03/28 07:19:24;;;;;;;4.40;2.87;;;7.20;99.90;;;;;;5010112;28;20439;-70
2021/03/28 07:22:20;;;;;;;3.30;2.40;;;7.20;99.90;;;;;;5006379;28;20533;-70
2021/03/28 07:24:57;;;;;;;4.70;2.40;;;7.30;99.90;;;;;;5036034;28;20486;-70
2021/03/28 07:27:30;;;;;;;6.37;2.90;;;7.30;99.90;;;;;;5028628;28;20556;-69
2021/03/28 07:30:14;;;;;;;6.17;3.47;;;7.40;99.90;;;;;;5020462;28;20455;-70
2021/03/28 07:33:08;;;;;;;8.03;3.10;;;7.50;99.90;;;;;;5000995;28;20927;-70
2021/03/28 07:36:04;;;;;;;2.70;1.70;;;7.50;99.90;;;;;;5005893;28;20467;-69
2021/03/28 07:38:50;;;;;;;3.20;2.30;;;7.60;99.90;;;;;;5022580;28;20469;-69
2021/03/28 07:41:16;;;;;;;3.60;2.53;;;7.70;99.90;;;;;;5027613;28;21032;-70
2021/03/28 07:43:59;;;;;;;4.40;3.27;;;7.80;99.90;;;;;;5030557;28;20475;-68
2021/03/28 07:46:49;;;;;;;3.53;2.80;;;7.80;99.90;;;;;;5036662;28;20254;-70
2021/03/28 07:49:18;;;;;;;5.97;2.60;;;7.90;99.90;;;;;;5009365;28;20465;-70
2021/03/28 07:51:50;;;;;;;5.00;2.70;;;7.90;99.90;;;;;;5030695;28;20468;-68
2021/03/28 07:54:53;;;;;;;3.87;3.30;;;8.00;99.90;;;;;;5030168;28;20471;-70
2021/03/28 07:57:31;;;;;;;3.23;2.47;;;8.10;99.90;;;;;;5030026;28;20458;-68
2021/03/28 08:00:00;;;;;;;3.70;2.70;;;8.10;99.90;;;;;;5016136;28;20455;-70
2021/03/28 08:02:45;;;;;;;3.57;2.40;;;8.20;99.90;;;;;;5028124;28;21071;-70
2021/03/28 08:05:34;;;;;;;9.13;3.53;;;8.20;99.90;;;;;;5010741;28;20463;-70
2021/03/28 08:08:37;;;;;;;6.60;3.30;;;8.30;99.90;;;;;;4996337;28;20460;-70
2021/03/28 08:11:03;;;;;;;8.10;2.70;;;8.40;99.90;;;;;;5015765;28;20466;-70
2021/03/28 08:13:52;;;;;;;5.20;3.47;;;8.60;99.90;;;;;;5029637;28;20448;-70
2021/03/28 08:16:39;;;;;;;6.87;2.60;;;8.60;99.90;;;;;;4992637;28;20232;-70
2021/03/28 08:19:42;;;;;;;6.00;2.47;;;8.70;99.90;;;;;;5011684;28;20462;-71
2021/03/28 08:22:38;;;;;;;2.70;2.17;;;8.80;99.90;;;;;;5043831;28;20549;-70
2021/03/28 08:25:16;;;;;;;3.97;2.87;;;8.90;99.90;;;;;;5031986;28;20462;-70
2021/03/28 08:28:34;;;;;;;3.27;3.00;;;9.00;99.90;;;;;;5027484;28;20517;-69
2021/03/28 08:31:27;;;;;;;3.87;2.93;;;9.00;99.90;;;;;;5025413;28;20455;-70
2021/03/28 08:34:41;;;;;;;7.40;3.20;;;9.10;99.90;;;;;;5012614;28;20915;-70
2021/03/28 08:37:38;;;;;;;3.90;2.17;;;9.10;99.90;;;;;;5026167;28;20538;-71
2021/03/28 08:40:25;;;;;;;2.27;2.07;;;9.20;99.90;;;;;;5033989;28;20466;-70
2021/03/28 08:43:28;;;;;;;3.23;2.10;;;9.40;99.90;;;;;;5006264;28;20468;-70
2021/03/28 08:46:06;;;;;;;8.30;2.63;;;9.40;99.90;;;;;;5014810;28;21122;-67
2021/03/28 08:49:00;;;;;;;3.33;2.33;;;9.40;99.90;;;;;;5030267;28;20458;-70
2021/03/28 08:51:38;;;;;;;3.03;2.07;;;9.50;99.90;;;;;;5020798;28;20582;-70
2021/03/28 08:54:31;;;;;;;5.07;2.50;;;9.70;99.90;;;;;;5019127;28;20594;-70
2021/03/28 08:57:12;;;;;;;2.20;1.97;;;9.90;99.90;;;;;;5026377;28;20475;-70
2021/03/28 08:59:47;;;;;;;4.07;2.20;;;10.00;99.90;;;;;;5014289;28;20513;-70
2021/03/28 09:02:35;;;;;;;2.50;2.00;;;10.10;99.90;;;;;;5041665;28;20955;-70
2021/03/28 09:05:04;;;;;;;2.33;2.13;;;10.20;99.90;;;;;;5031924;28;20469;-69
2021/03/28 09:07:43;;;;;;;2.63;2.00;;;10.40;99.90;;;;;;5038324;28;20493;-70
2021/03/28 09:10:43;;;;;;;7.60;4.03;;;10.50;99.90;;;;;;5009005;28;20491;-69
2021/03/28 09:13:37;;;;;;;4.33;3.13;;;10.50;99.90;;;;;;5011115;28;20471;-70
2021/03/28 09:16:17;;;;;;;4.80;3.07;;;10.60;99.90;;;;;;5036678;28;20459;-70
2021/03/28 09:19:22;;;;;;;2.90;2.60;;;10.80;99.90;;;;;;5010930;28;20460;-70
2021/03/28 09:22:13;;;;;;;6.43;2.63;;;10.90;99.90;;;;;;5000083;28;20475;-71
2021/03/28 09:24:53;;;;;;;5.97;2.20;;;11.00;99.90;;;;;;5032379;28;20855;-70
2021/03/28 09:28:12;;;;;;;3.70;2.00;;;11.10;99.90;;;;;;5017300;28;20838;-69
2021/03/28 09:30:51;;;;;;;2.60;2.30;;;11.40;99.90;;;;;;4975396;28;20940;-70
2021/03/28 09:33:20;;;;;;;2.20;2.00;;;11.50;99.90;;;;;;5008166;28;20477;-70
2021/03/28 09:36:18;;;;;;;4.03;2.77;;;11.60;99.90;;;;;;5002861;28;20452;-71
2021/03/28 09:38:56;;;;;;;2.90;1.57;;;11.80;99.90;;;;;;5010965;28;20537;-70
2021/03/28 09:41:22;;;;;;;2.43;1.70;;;11.90;99.90;;;;;;5020037;28;21070;-71
2021/03/28 09:44:02;;;;;;;4.10;2.67;;;12.00;99.90;;;;;;5026226;28;20456;-71
2021/03/28 09:46:39;;;;;;;2.73;2.43;;;12.00;99.90;;;;;;5017949;28;20224;-70
2021/03/28 09:49:17;;;;;;;2.60;1.93;;;12.10;99.90;;;;;;5015877;28;20490;-71
2021/03/28 09:51:58;;;;;;;2.13;1.93;;;12.30;99.90;;;;;;5001434;28;20465;-70
2021/03/28 09:54:45;;;;;;;3.07;2.00;;;12.40;99.90;;;;;;5021781;28;20555;-71
2021/03/28 09:57:16;;;;;;;2.17;1.77;;;12.60;99.90;;;;;;5017888;28;21042;-70
2021/03/28 09:59:54;;;;;;;1.50;1.37;;;12.70;99.90;;;;;;5024585;28;20485;-70
2021/03/28 10:02:38;;;;;;;6.07;2.00;;;12.70;99.90;;;;;;5024926;28;21252;-70
2021/03/28 10:05:22;;;;;;;3.40;1.67;;;12.80;99.90;;;;;;5023538;28;20463;-71
2021/03/28 10:08:00;;;;;;;3.20;2.10;;;12.90;99.90;;;;;;5009121;28;20543;-71
2021/03/28 10:10:35;;;;;;;1.80;1.40;;;13.00;99.90;;;;;;5001981;28;20851;-70
2021/03/28 10:13:23;;;;;;;5.50;1.67;;;13.00;99.90;;;;;;5008627;28;20928;-69
2021/03/28 10:16:01;;;;;;;3.57;1.53;;;13.10;99.90;;;;;;5019476;28;20451;-71
2021/03/28 10:19:04;;;;;;;1.70;1.40;;;13.10;99.90;;;;;;5001164;28;20460;-71
2021/03/28 10:21:36;;;;;;;4.50;2.07;;;13.10;99.90;;;;;;5018265;28;20629;-71
2021/03/28 10:24:26;;;;;;;2.30;2.10;;;13.30;99.90;;;;;;5037274;28;20460;-71
2021/03/28 10:27:23;;;;;;;4.60;1.90;;;13.40;99.90;;;;;;5000515;28;20540;-71
2021/03/28 10:30:01;;;;;;;1.63;1.53;;;13.50;99.90;;;;;;5021184;28;20887;-70
2021/03/28 10:32:56;;;;;;;3.67;1.80;;;13.60;99.90;;;;;;5038703;28;20493;-71
2021/03/28 10:35:56;;;;;;;5.20;1.80;;;13.60;99.90;;;;;;5013824;28;21079;-71
2021/03/28 10:38:37;;;;;;;3.53;2.20;;;13.60;99.90;;;;;;5040195;28;20455;-69
2021/03/28 10:41:30;;;;;;;2.27;2.00;;;13.60;99.90;;;;;;5021307;28;20475;-70
2021/03/28 10:44:13;;;;;;;4.80;2.53;;;13.60;99.90;;;;;;5010780;28;20471;-70
2021/03/28 10:47:16;;;;;;;2.47;2.17;;;13.60;99.90;;;;;;5008620;28;20490;-71
2021/03/28 10:50:15;;;;;;;2.43;1.60;;;13.50;99.90;;;;;;5024107;28;20464;-69
2021/03/28 10:52:47;;;;;;;2.63;1.97;;;13.60;99.90;;;;;;5018222;28;20460;-70
2021/03/28 10:55:31;;;;;;;1.90;1.70;;;13.50;99.90;;;;;;5005106;28;20541;-71
2021/03/28 10:58:30;;;;;;;2.30;1.80;;;13.40;99.90;;;;;;5000090;28;20471;-70
2021/03/28 11:01:47;;;;;;;1.63;1.33;;;13.40;99.90;;;;;;5014678;28;20479;-69
2021/03/28 11:04:38;;;;;;;2.03;1.30;;;13.40;99.90;;;;;;5003512;28;20499;-69
2021/03/28 11:07:13;;;;;;;6.17;2.70;;;13.40;99.90;;;;;;5004042;28;20471;-70
2021/03/28 11:10:15;;;;;;;2.80;1.60;;;13.40;99.90;;;;;;5003620;28;20459;-69
2021/03/28 11:12:58;;;;;;;1.30;1.20;;;13.40;99.90;;;;;;5021130;28;20462;-70
2021/03/28 11:16:10;;;;;;;1.60;1.33;;;13.50;99.90;;;;;;5019178;28;20561;-70
2021/03/28 11:19:16;;;;;;;2.40;1.23;;;13.50;99.90;;;;;;5015680;28;20451;-71
2021/03/28 11:22:16;;;;;;;2.60;1.30;;;13.60;99.90;;;;;;5021342;28;20470;-70
2021/03/28 11:24:57;;;;;;;1.40;1.13;;;13.80;99.90;;;;;;5023091;28;20455;-70
2021/03/28 11:27:59;;;;;;;1.20;1.10;;;13.90;99.90;;;;;;5006576;28;20471;-71
2021/03/28 11:30:33;;;;;;;2.00;1.30;;;14.00;99.70;;;;;;5019254;28;20455;-70
2021/03/28 11:33:02;;;;;;;1.33;1.23;;;14.30;99.90;;;;;;5030088;28;20487;-70
2021/03/28 11:35:33;;;;;;;1.27;1.20;;;14.40;99.90;;;;;;5001455;28;20468;-69
2021/03/28 11:38:17;;;;;;;2.30;1.30;;;14.60;98.60;;;;;;4988520;28;20482;-70
2021/03/28 11:40:50;;;;;;;1.80;1.50;;;14.80;98.90;;;;;;5004152;28;20460;-70
2021/03/28 11:43:22;;;;;;;1.37;1.13;;;14.90;98.20;;;;;;5021438;28;20553;-71
2021/03/28 11:46:19;;;;;;;1.23;1.13;;;15.00;99.00;;;;;;5003226;28;20982;-69
2021/03/28 11:49:08;;;;;;;2.67;2.30;;;15.10;99.30;;;;;;5022487;28;20466;-71
2021/03/28 11:51:34;;;;;;;1.80;1.47;;;15.20;99.70;;;;;;5020797;28;20501;-70
2021/03/28 11:54:08;;;;;;;3.20;1.50;;;15.30;98.30;;;;;;5021817;28;20502;-70
2021/03/28 11:56:53;;;;;;;4.40;2.50;;;15.40;98.90;;;;;;5022426;28;20785;-70
2021/03/28 11:59:23;;;;;;;3.40;1.63;;;15.50;98.90;;;;;;5006585;28;20555;-70
2021/03/28 12:01:54;;;;;;;1.47;1.40;;;15.60;98.00;;;;;;5018638;28;20471;-70
2021/03/28 12:04:35;;;;;;;2.87;1.33;;;15.70;97.90;;;;;;5020354;28;20511;-70
2021/03/28 12:07:36;;;;;;;2.70;1.53;;;15.80;97.10;;;;;;4985790;28;20475;-70
2021/03/28 12:10:04;;;;;;;1.87;1.40;;;15.80;97.60;;;;;;4985818;28;20510;-69
2021/03/28 12:12:40;;;;;;;2.40;1.63;;;15.90;97.10;;;;;;5002338;28;20461;-70
2021/03/28 12:15:46;;;;;;;1.97;1.50;;;15.90;96.30;;;;;;5020312;28;20479;-70
2021/03/28 12:18:21;;;;;;;1.50;1.30;;;15.80;95.90;;;;;;5015024;28;20466;-71
2021/03/28 12:21:02;;;;;;;2.60;1.30;;;15.90;97.30;;;;;;5011732;28;20460;-70
2021/03/28 12:23:40;;;;;;;3.20;1.43;;;16.10;96.20;;;;;;4997316;28;20846;-70
2021/03/28 12:26:14;;;;;;;2.43;1.60;;;16.10;97.00;;;;;;5016544;28;21205;-71
2021/03/28 12:28:45;;;;;;;1.93;1.43;;;16.20;96.60;;;;;;5000750;28;20459;-70
2021/03/28 12:32:05;;;;;;;3.90;2.27;;;16.20;96.80;;;;;;5018467;28;20468;-67
2021/03/28 12:34:40;;;;;;;6.37;5.10;;;16.30;96.60;;;;;;5020905;28;20490;-69
2021/03/28 12:37:06;;;;;;;7.87;6.73;;;16.30;95.60;;;;;;5018236;28;20475;-67
2021/03/28 12:39:34;;;;;;;9.50;6.93;;;16.30;95.40;;;;;;5036937;28;20468;-68
2021/03/28 12:42:02;;;;;;;9.07;7.10;;;16.30;94.60;;;;;;5017927;28;20976;-67
2021/03/28 12:44:35;;;;;;;9.13;6.30;;;16.20;94.60;;;;;;5023341;28;20514;-68
2021/03/28 12:47:20;;;;;;;5.33;4.60;;;16.20;94.60;;;;;;5007674;28;20459;-68
2021/03/28 12:50:00;;;;;;;9.87;5.70;;;16.30;95.70;;;;;;5015609;28;20483;-68
2021/03/28 12:52:39;;;;;;;9.57;7.80;;;16.40;94.80;;;;;;4999515;28;20559;-68
2021/03/28 12:55:19;;;;;;;12.93;8.13;;;16.50;94.40;;;;;;5006637;28;20505;-68
2021/03/28 12:57:52;;;;;;;18.00;12.63;;;16.40;95.30;;;;;;5021299;28;20475;-67
2021/03/28 13:00:31;;;;;;;10.80;8.00;;;16.40;94.40;;;;;;5002053;28;20605;-68
2021/03/28 13:02:57;;;;;;;7.97;6.47;;;16.40;94.40;;;;;;5011106;28;20801;-68
2021/03/28 13:05:28;;;;;;;10.20;5.33;;;16.40;94.70;;;;;;4992548;28;20466;-68
2021/03/28 13:08:18;;;;;;;6.93;5.13;;;16.50;95.10;;;;;;5010725;28;20443;-68
2021/03/28 13:10:45;;;;;;;4.33;3.93;;;16.50;95.30;;;;;;5010798;28;20463;-68
2021/03/28 13:13:14;;;;;;;6.53;3.10;;;16.70;93.80;;;;;;4993833;28;21050;-69
2021/03/28 13:19:01;;;;;;;3.93;3.03;;;16.80;94.30;;;;;;5026517;28;20529;-69
2021/03/28 13:21:33;;;;;;;2.60;2.43;;;16.80;93.60;;;;;;5023656;28;21024;-69
2021/03/28 13:24:19;;;;;;;3.70;2.40;;;16.90;94.30;;;;;;5015025;28;20275;-68
2021/03/28 13:27:09;;;;;;;2.73;1.83;;;17.00;94.40;;;;;;5004901;28;20836;-69
2021/03/28 13:29:40;;;;;;;2.83;1.80;;;17.10;94.30;;;;;;5011771;28;20815;-70
2021/03/28 13:32:32;;;;;;;2.40;1.80;;;17.10;93.80;;;;;;5016146;28;20538;-69
2021/03/28 13:35:29;;;;;;;1.60;1.50;;;17.20;93.20;;;;;;5001767;28;20470;-70
2021/03/28 13:37:55;;;;;;;2.93;1.20;;;17.30;93.70;;;;;;5019906;28;20517;-71
2021/03/28 13:40:49;;;;;;;2.10;1.20;;;17.30;92.60;;;;;;5009580;28;20466;-69
2021/03/28 13:43:35;;;;;;;3.27;1.20;;;17.30;92.60;;;;;;5006255;28;20543;-68
2021/03/28 13:46:16;;;;;;;1.67;1.47;;;17.40;92.90;;;;;;5001293;28;20467;-68
2021/03/28 13:48:44;;;;;;;3.60;1.60;;;17.30;92.10;;;;;;5023717;28;20497;-68
2021/03/28 13:51:13;;;;;;;1.80;1.40;;;17.30;92.40;;;;;;5013824;28;20468;-67
2021/03/28 13:53:54;;;;;;;3.13;1.40;;;17.40;92.40;;;;;;5000510;28;21000;-68
2021/03/28 13:56:48;;;;;;;2.03;1.10;;;17.50;92.30;;;;;;5005250;28;20515;-67
2021/03/28 13:59:24;;;;;;;1.53;1.20;;;17.50;92.40;;;;;;5004425;28;20455;-68
2021/03/28 14:02:02;;;;;;;3.37;1.53;;;17.60;93.00;;;;;;5022090;28;20541;-69
2021/03/28 14:04:33;;;;;;;1.50;1.30;;;17.50;92.40;;;;;;5021820;28;20467;-69
2021/03/28 14:07:21;;;;;;;2.50;1.70;;;17.60;93.10;;;;;;5016135;28;20451;-69
2021/03/28 14:10:04;;;;;;;3.50;1.37;;;17.60;92.50;;;;;;5021383;28;20558;-69
2021/03/28 14:13:07;;;;;;;2.83;1.87;;;17.70;91.60;;;;;;5010065;28;20519;-68
2021/03/28 14:15:44;;;;;;;1.23;1.13;;;17.60;91.50;;;;;;5008785;28;20839;-68
2021/03/28 14:18:36;;;;;;;1.20;1.10;;;17.60;92.10;;;;;;5024238;28;21362;-71
2021/03/28 14:21:28;;;;;;;1.73;1.40;;;17.70;92.30;;;;;;5001935;28;20468;-70
2021/03/28 14:24:10;;;;;;;2.30;1.20;;;17.80;92.30;;;;;;5019881;28;20443;-71
2021/03/28 14:27:08;;;;;;;3.37;1.33;;;17.90;92.30;;;;;;5007766;28;20436;-69
2021/03/28 14:29:42;;;;;;;2.37;1.37;;;17.90;91.90;;;;;;5009527;28;20506;-69